Time;durP1;ratioP1;P1;durP2;ratioP2;P2;SDS_P1;SDS_P2;PMS_P1;PMS_P2;Temp;Humidity;BMP_temperature;BMP_pressure;BME280_temperature;BME280_humidity;BME280_pressure;Samples;Min_cycle;Max_cycle;Signal;HPM_P1;HPM_P2
2024/03/14 00:00:52;;;;;;;4.07;3.05;;;;;;;8.28;85.83;150753.56;10460085;28;20036;-73
2024/03/14 00:05:54;;;;;;;4.68;3.42;;;;;;;8.33;85.34;150767.72;10460133;28;20411;-73
2024/03/14 00:10:56;;;;;;;3.25;2.78;;;;;;;8.19;85.75;150731.66;10460189;28;20063;-74
2024/03/14 00:15:58;;;;;;;3.70;2.80;;;;;;;8.15;86.56;150720.06;10460471;28;20041;-74
2024/03/14 00:21:00;;;;;;;5.15;3.83;;;;;;;8.23;85.89;150741.91;10460517;28;20041;-73
2024/03/14 00:26:03;;;;;;;4.57;3.63;;;;;;;8.27;84.85;150752.22;10459212;28;20428;-73
2024/03/14 00:31:05;;;;;;;4.85;3.97;;;;;;;8.35;84.45;150771.59;10459388;28;20045;-73
2024/03/14 00:36:11;;;;;;;6.15;4.05;;;;;;;8.29;85.22;150756.13;10459983;28;20116;-72
2024/03/14 00:41:16;;;;;;;5.38;3.75;;;;;;;8.14;85.86;150717.44;10441316;28;20098;-72
2024/03/14 00:46:18;;;;;;;6.35;4.80;;;;;;;8.28;84.51;150754.84;10441838;28;20071;-73
2024/03/14 00:51:20;;;;;;;4.75;3.28;;;;;;;8.01;86.54;150685.22;10458319;28;20121;-72
2024/03/14 00:56:24;;;;;;;3.72;3.17;;;;;;;8.08;85.53;150704.56;10458408;28;20047;-72
2024/03/14 01:01:26;;;;;;;4.65;3.55;;;;;;;7.94;86.47;150667.22;10440266;28;20048;-74
2024/03/14 01:06:28;;;;;;;4.20;3.33;;;;;;;8.04;86.19;150694.25;10440129;28;20068;-73
2024/03/14 01:11:30;;;;;;;3.38;2.88;;;;;;;8.15;85.41;150721.34;10457611;28;20045;-72
2024/03/14 01:16:34;;;;;;;4.05;3.28;;;;;;;8.00;87.07;150682.66;10457743;28;20500;-72
2024/03/14 01:21:39;;;;;;;4.57;4.03;;;;;;;7.86;88.25;150647.88;10457416;28;20037;-72
2024/03/14 01:26:41;;;;;;;4.82;3.80;;;;;;;8.03;87.70;150690.41;10457001;28;20394;-72
2024/03/14 01:31:45;;;;;;;3.88;3.10;;;;;;;8.31;85.54;150761.25;10457555;28;20040;-72
2024/03/14 01:36:46;;;;;;;3.40;3.05;;;;;;;8.42;85.01;150788.41;10456695;28;20088;-72
2024/03/14 01:41:49;;;;;;;3.90;3.50;;;;;;;8.41;84.84;150785.78;10456825;28;20037;-72
2024/03/14 01:46:54;;;;;;;3.50;3.17;;;;;;;8.09;87.58;150707.13;10457048;28;20124;-72
2024/03/14 01:51:56;;;;;;;4.70;3.42;;;;;;;7.74;90.60;150618.22;10438828;28;20496;-73
2024/03/14 01:56:58;;;;;;;5.68;3.25;;;;;;;7.59;92.25;150580.88;10456514;28;20102;-72
2024/03/14 02:02:00;;;;;;;4.32;3.08;;;;;;;7.50;92.81;150557.69;10456154;28;20045;-72
2024/03/14 02:07:09;;;;;;;5.25;3.55;;;;;;;7.59;92.51;150580.88;10456571;28;20124;-72
2024/03/14 02:12:10;;;;;;;3.85;3.45;;;;;;;7.69;91.72;150604.06;10455998;28;20415;-72
2024/03/14 02:17:12;;;;;;;5.15;3.25;;;;;;;7.52;93.15;150561.53;10457451;28;20058;-72
2024/03/14 02:22:20;;;;;;;3.58;3.15;;;;;;;7.73;92.13;150614.38;10464264;28;20112;-72
2024/03/14 02:27:23;;;;;;;3.92;3.33;;;;;;;7.58;92.39;150577.03;10464232;28;20040;-72
2024/03/14 02:32:24;;;;;;;3.25;2.70;;;;;;;7.53;93.37;150565.44;10463778;28;20041;-72
2024/03/14 02:37:26;;;;;;;4.18;3.42;;;;;;;7.64;92.49;150592.47;10464804;28;20129;-72
2024/03/14 02:42:28;;;;;;;3.40;2.92;;;;;;;7.70;92.09;150606.63;10463577;28;20029;-72
2024/03/14 02:47:31;;;;;;;3.53;2.95;;;;;;;7.62;93.34;150587.34;10463104;28;20163;-72
2024/03/14 02:52:33;;;;;;;3.05;2.67;;;;;;;7.61;93.13;150584.72;10462975;28;20048;-72
2024/03/14 02:57:35;;;;;;;4.22;3.20;;;;;;;7.75;92.18;150620.84;10463997;28;20044;-72
2024/03/14 03:02:37;;;;;;;4.03;3.40;;;;;;;7.75;93.74;150620.84;10463039;28;20033;-72
2024/03/14 03:07:38;;;;;;;3.72;3.35;;;;;;;7.44;99.57;150542.25;10462554;28;20095;-71
2024/03/14 03:12:40;;;;;;;3.97;3.33;;;;;;;7.53;99.15;150565.44;10462608;28;20040;-73
2024/03/14 03:17:42;;;;;;;4.07;3.05;;;;;;;7.53;100.00;150564.16;10462617;28;20126;-71
2024/03/14 03:28:10;;;;;;;3.38;3.08;;;;;;;7.33;100.00;150513.88;10462057;28;20509;-73
2024/03/14 03:33:17;;;;;;;4.38;3.97;;;;;;;7.23;100.00;150489.44;10461460;28;20449;-71
2024/03/14 03:38:19;;;;;;;4.35;3.20;;;;;;;7.13;100.00;150463.69;10443784;28;20041;-72
2024/03/14 03:43:20;;;;;;;11.13;4.82;;;;;;;7.04;100.00;150441.81;10460747;28;20051;-71
2024/03/14 03:48:25;;;;;;;4.57;4.05;;;;;;;7.26;100.00;150497.19;10460642;28;20047;-72
2024/03/14 03:53:27;;;;;;;3.60;3.30;;;;;;;7.14;100.00;150466.25;10460488;28;20120;-72
2024/03/14 03:58:34;;;;;;;4.28;3.78;;;;;;;7.12;100.00;150461.06;10460259;28;20076;-71
2024/03/14 04:03:40;;;;;;;4.97;4.25;;;;;;;7.13;100.00;150463.69;10460736;28;20090;-72
2024/03/14 04:08:42;;;;;;;4.93;4.43;;;;;;;7.02;100.00;150435.34;10460733;28;20041;-72
2024/03/14 04:13:43;;;;;;;4.57;4.05;;;;;;;6.81;100.00;150383.81;10459873;28;20104;-72
2024/03/14 04:18:45;;;;;;;4.85;4.45;;;;;;;6.79;100.00;150378.69;10459603;28;20045;-71
2024/03/14 04:23:47;;;;;;;6.55;4.68;;;;;;;6.79;100.00;150378.69;10460144;28;20040;-72
2024/03/14 04:28:49;;;;;;;5.93;5.03;;;;;;;6.75;100.00;150368.38;10459288;28;20083;-72
2024/03/14 04:33:51;;;;;;;5.43;4.82;;;;;;;6.70;100.00;150354.25;10459124;28;20068;-72
2024/03/14 04:38:54;;;;;;;4.85;4.45;;;;;;;6.72;100.00;150360.66;10441872;28;20459;-72
2024/03/14 04:43:56;;;;;;;4.93;4.53;;;;;;;6.72;100.00;150359.38;10440622;28;20045;-71
2024/03/14 04:48:58;;;;;;;4.90;4.40;;;;;;;6.96;100.00;150419.91;10458626;28;20045;-71
2024/03/14 04:54:00;;;;;;;5.15;4.65;;;;;;;6.72;100.00;150360.66;10458552;28;20045;-72
2024/03/14 04:59:01;;;;;;;5.45;4.95;;;;;;;6.67;100.00;150346.50;10458302;28;20044;-72
2024/03/14 05:04:03;;;;;;;5.68;5.10;;;;;;;6.87;100.00;150398.03;10439930;28;20053;-72
2024/03/14 05:09:10;;;;;;;5.22;4.72;;;;;;;6.82;100.00;150386.44;10458330;28;20389;-71
2024/03/14 05:14:12;;;;;;;6.07;5.53;;;;;;;6.66;100.00;150343.94;10457400;28;20463;-72
2024/03/14 05:19:20;;;;;;;4.88;4.35;;;;;;;6.74;100.00;150364.53;10457221;28;20385;-71
2024/03/14 05:24:22;;;;;;;5.22;4.75;;;;;;;6.83;100.00;150389.00;10457180;28;20170;-72
2024/03/14 05:29:25;;;;;;;5.60;4.95;;;;;;;6.97;100.00;150422.47;10457827;28;20530;-72
2024/03/14 05:34:26;;;;;;;5.60;5.10;;;;;;;7.13;100.00;150463.69;10457198;28;20411;-71
2024/03/14 05:39:29;;;;;;;6.55;4.75;;;;;;;7.20;100.00;150480.41;10457407;28;20037;-71
2024/03/14 05:44:30;;;;;;;5.38;4.85;;;;;;;6.97;100.00;150422.47;10456772;28;20041;-71
2024/03/14 05:49:32;;;;;;;6.50;4.97;;;;;;;6.76;100.00;150369.66;10438776;28;20048;-72
2024/03/14 05:54:34;;;;;;;8.02;5.13;;;;;;;6.79;100.00;150377.41;10438128;28;20048;-73
2024/03/14 05:59:36;;;;;;;5.47;4.97;;;;;;;6.65;100.00;150341.38;10456158;28;20451;-71
2024/03/14 06:04:38;;;;;;;7.95;5.55;;;;;;;6.61;100.00;150331.06;10456362;28;20135;-72
2024/03/14 06:09:41;;;;;;;6.68;6.07;;;;;;;6.71;100.00;150356.81;10456235;28;20041;-72
2024/03/14 06:14:43;;;;;;;5.95;5.30;;;;;;;6.81;100.00;150383.81;10456064;28;20067;-71
2024/03/14 06:19:46;;;;;;;6.18;5.57;;;;;;;7.06;100.00;150445.66;10456269;28;20087;-71
2024/03/14 06:24:48;;;;;;;6.07;5.53;;;;;;;7.13;100.00;150463.69;10455625;28;20045;-73
2024/03/14 06:29:50;;;;;;;6.78;6.07;;;;;;;7.02;100.00;150436.63;10455949;28;20044;-73
2024/03/14 06:34:52;;;;;;;6.82;5.38;;;;;;;7.06;100.00;150446.94;10455396;28;20107;-73
2024/03/14 06:39:54;;;;;;;6.55;5.85;;;;;;;7.20;100.00;150480.41;10455490;28;20465;-74
2024/03/14 06:44:56;;;;;;;6.43;5.50;;;;;;;7.24;100.00;150490.72;10455893;28;20103;-74
2024/03/14 06:49:58;;;;;;;6.30;5.47;;;;;;;7.24;100.00;150492.00;10454975;28;20052;-73
2024/03/14 06:55:01;;;;;;;7.50;5.70;;;;;;;7.43;100.00;150538.34;10455991;28;20049;-74
2024/03/14 07:00:11;;;;;;;6.25;5.60;;;;;;;7.30;100.00;150506.16;10437357;28;20504;-72
2024/03/14 07:05:17;;;;;;;6.88;5.90;;;;;;;7.46;100.00;150547.38;10458762;28;20124;-73
2024/03/14 07:10:19;;;;;;;7.35;6.65;;;;;;;7.39;100.00;150528.03;10462022;28;20520;-74
2024/03/14 07:15:22;;;;;;;7.05;6.35;;;;;;;7.28;100.00;150501.03;10462010;28;20127;-73
2024/03/14 07:20:33;;;;;;;7.32;6.55;;;;;;;7.56;100.00;150573.13;10462124;28;20501;-74
2024/03/14 07:25:35;;;;;;;7.93;7.15;;;;;;;7.41;100.00;150533.22;10461704;28;20041;-73
2024/03/14 07:30:40;;;;;;;7.45;6.75;;;;;;;7.37;100.00;150522.91;10443450;28;20053;-73
2024/03/14 07:35:44;;;;;;;9.75;7.47;;;;;;;7.36;100.00;150520.34;10462176;28;20115;-73
2024/03/14 07:40:47;;;;;;;12.45;7.28;;;;;;;7.86;100.00;150647.88;10462412;28;20116;-73
2024/03/14 07:45:48;;;;;;;8.07;7.20;;;;;;;7.60;100.00;150582.16;10460625;28;20121;-73
2024/03/14 07:50:50;;;;;;;11.63;6.95;;;;;;;7.69;100.00;150604.06;10461068;28;20067;-73
2024/03/14 07:55:52;;;;;;;10.50;8.05;;;;;;;7.63;100.00;150588.63;10461142;28;20053;-74
2024/03/14 08:00:55;;;;;;;11.95;9.35;;;;;;;7.83;100.00;150640.13;10460571;28;20436;-74
2024/03/14 08:05:59;;;;;;;13.45;8.05;;;;;;;7.74;100.00;150618.22;10460615;28;20437;-75
2024/03/14 08:11:03;;;;;;;8.98;8.07;;;;;;;7.97;100.00;150676.22;10460171;28;20071;-74
2024/03/14 08:16:14;;;;;;;8.27;7.55;;;;;;;7.92;100.00;150662.03;10459746;28;20056;-76
2024/03/14 08:21:16;;;;;;;10.95;8.73;;;;;;;8.08;100.00;150703.28;10460303;28;20064;-76
2024/03/14 08:26:18;;;;;;;9.07;8.23;;;;;;;7.88;100.00;150651.72;10441942;28;20049;-75
2024/03/14 08:31:21;;;;;;;9.25;8.45;;;;;;;8.02;100.00;150689.13;10459603;28;20047;-74
2024/03/14 08:36:24;;;;;;;9.85;8.80;;;;;;;8.21;100.00;150736.78;10459641;28;20033;-75
2024/03/14 08:41:26;;;;;;;10.13;9.23;;;;;;;8.70;100.00;150860.59;10459060;28;20037;-75
2024/03/14 08:46:28;;;;;;;10.63;9.05;;;;;;;8.66;100.00;150850.25;10441333;28;20052;-75
2024/03/14 08:51:31;;;;;;;10.30;9.30;;;;;;;8.98;100.00;150931.47;10458562;28;20037;-75
2024/03/14 08:56:35;;;;;;;10.95;8.27;;;;;;;8.96;100.00;150926.34;10458561;28;20037;-75
2024/03/14 09:01:36;;;;;;;10.48;9.38;;;;;;;8.96;100.00;150926.34;10458288;28;20037;-75
2024/03/14 09:06:40;;;;;;;13.48;9.30;;;;;;;9.12;100.00;150965.03;10458277;28;20044;-75
2024/03/14 09:11:42;;;;;;;9.63;8.73;;;;;;;9.09;100.00;150958.59;10458174;28;20063;-75
2024/03/14 09:16:50;;;;;;;9.88;8.98;;;;;;;9.24;100.00;150995.97;10440633;28;20053;-75
2024/03/14 09:21:51;;;;;;;9.43;8.55;;;;;;;9.54;100.00;151073.38;10457722;28;20091;-75
2024/03/14 09:26:53;;;;;;;11.13;10.02;;;;;;;9.54;100.00;151073.38;10457068;28;20041;-77
2024/03/14 09:31:56;;;;;;;9.70;8.80;;;;;;;9.51;100.00;151065.63;10458189;28;20120;-76
2024/03/14 09:37:00;;;;;;;11.48;10.43;;;;;;;9.34;100.00;151021.78;10459273;28;20041;-76
2024/03/14 09:42:02;;;;;;;11.93;10.55;;;;;;;9.29;100.00;151010.16;10458900;28;20047;-76
2024/03/14 09:47:40;;;;;;;11.05;10.15;;;;;;;9.68;100.00;151106.94;10458091;28;20124;-76
2024/03/14 09:52:43;;;;;;;10.85;9.75;;;;;;;9.75;100.00;151126.31;10457858;28;20037;-76
2024/03/14 09:57:51;;;;;;;11.73;10.32;;;;;;;10.30;100.00;151265.72;10458907;28;20416;-76
2024/03/14 10:02:55;;;;;;;12.70;9.88;;;;;;;10.21;100.00;151242.44;10457833;28;20045;-76
2024/03/14 10:07:59;;;;;;;10.15;9.15;;;;;;;10.19;100.00;151237.28;10458115;28;20059;-75
2024/03/14 10:13:01;;;;;;;14.10;9.75;;;;;;;10.10;100.00;151215.34;10457852;28;20459;-76
2024/03/14 10:18:09;;;;;;;10.05;9.05;;;;;;;10.43;100.00;151298.00;10458135;28;20072;-76
2024/03/14 10:23:16;;;;;;;12.43;10.35;;;;;;;10.21;100.00;151242.44;10458270;28;20098;-76
2024/03/14 10:28:20;;;;;;;11.85;9.38;;;;;;;10.39;100.00;151287.66;10458361;28;20132;-76
2024/03/14 10:33:22;;;;;;;10.35;9.45;;;;;;;10.45;100.00;151301.91;10457732;28;20033;-76
2024/03/14 10:38:26;;;;;;;9.38;8.48;;;;;;;10.79;100.00;151389.66;10458477;28;20095;-76
2024/03/14 10:43:34;;;;;;;9.48;8.68;;;;;;;10.43;100.00;151296.72;10464990;28;20128;-76
2024/03/14 10:48:38;;;;;;;10.00;9.15;;;;;;;10.74;100.00;151376.75;10466517;28;20037;-76
2024/03/14 10:53:41;;;;;;;10.23;9.32;;;;;;;10.92;100.00;151420.66;10448254;28;20040;-76
2024/03/14 10:58:47;;;;;;;10.75;8.75;;;;;;;11.43;100.00;151549.88;10466114;28;20086;-76
2024/03/14 11:03:52;;;;;;;8.93;8.13;;;;;;;11.53;100.00;151576.97;10465607;28;20382;-76
2024/03/14 11:08:59;;;;;;;10.50;9.60;;;;;;;11.13;100.00;151474.91;10466190;28;20489;-76
2024/03/14 11:14:05;;;;;;;9.48;8.50;;;;;;;11.51;100.00;151570.50;10465682;28;20070;-75
2024/03/14 11:19:14;;;;;;;10.47;9.23;;;;;;;11.29;100.00;151516.28;10464436;28;20045;-75
2024/03/14 11:24:19;;;;;;;9.75;8.85;;;;;;;11.64;100.00;151604.09;10463678;28;20087;-75
2024/03/14 11:29:22;;;;;;;12.98;7.63;;;;;;;11.50;100.00;151569.22;10446438;28;20041;-75
2024/03/14 11:34:26;;;;;;;8.23;7.50;;;;;;;11.33;100.00;151525.28;10463735;28;20556;-75
2024/03/14 11:39:28;;;;;;;9.13;8.43;;;;;;;11.44;100.00;151552.44;10463558;28;20041;-75
2024/03/14 11:44:30;;;;;;;8.85;8.10;;;;;;;11.48;100.00;151564.06;10463594;28;20051;-77
2024/03/14 11:49:33;;;;;;;9.23;8.43;;;;;;;11.57;100.00;151586.03;10444271;28;20485;-76
2024/03/14 11:54:37;;;;;;;8.93;8.13;;;;;;;11.68;100.00;151613.16;10444357;28;20064;-75
2024/03/14 11:59:39;;;;;;;8.93;8.23;;;;;;;11.99;100.00;151693.31;10463056;28;20484;-75
2024/03/14 12:04:48;;;;;;;8.70;7.97;;;;;;;11.72;100.00;151624.78;10462442;28;20039;-75
2024/03/14 12:09:50;;;;;;;7.53;6.72;;;;;;;11.93;100.00;151677.84;10462914;28;20106;-75
2024/03/14 12:14:55;;;;;;;8.20;7.50;;;;;;;12.27;100.00;151763.16;10446574;28;20037;-76
2024/03/14 12:19:57;;;;;;;6.68;5.97;;;;;;;12.41;100.00;151798.06;10465011;28;20040;-75
2024/03/14 12:25:00;;;;;;;6.55;6.05;;;;;;;12.68;100.00;151866.59;10464762;28;20068;-75
2024/03/14 12:30:05;;;;;;;6.53;5.82;;;;;;;12.60;100.00;151847.19;10464033;28;20075;-75
2024/03/14 12:35:13;;;;;;;9.88;6.20;;;;;;;12.57;100.00;151840.75;10462863;28;20052;-76
2024/03/14 12:40:19;;;;;;;6.80;6.18;;;;;;;12.40;100.00;151796.78;10443757;28;20044;-74
2024/03/14 12:45:26;;;;;;;4.97;4.57;;;;;;;12.88;100.00;151918.28;10461213;28;20041;-75
2024/03/14 12:50:28;;;;;;;5.65;5.15;;;;;;;12.54;100.00;151831.69;10461338;28;20095;-74
2024/03/14 12:55:33;;;;;;;5.03;4.63;;;;;;;12.46;100.00;151811.00;10458694;28;20032;-74
2024/03/14 13:00:35;;;;;;;5.70;5.20;;;;;;;12.60;100.00;151848.47;10459684;28;20079;-76
2024/03/14 13:05:37;;;;;;;5.90;5.30;;;;;;;12.46;100.00;151812.28;10458873;28;20045;-74
2024/03/14 13:10:40;;;;;;;6.25;5.75;;;;;;;12.54;100.00;151831.69;10441722;28;20100;-75
2024/03/14 13:15:52;;;;;;;6.70;5.93;;;;;;;12.07;100.00;151714.00;10459467;28;20045;-78
2024/03/14 13:20:55;;;;;;;6.10;5.47;;;;;;;12.17;100.00;151737.28;10462535;28;20519;-75
2024/03/14 13:25:57;;;;;;;6.93;6.07;;;;;;;12.22;100.00;151751.53;10460367;28;20049;-75
2024/03/14 13:30:59;;;;;;;6.00;5.40;;;;;;;12.41;100.00;151798.06;10441998;28;20037;-74
2024/03/14 13:36:05;;;;;;;7.55;5.82;;;;;;;12.52;100.00;151826.47;10458925;28;20044;-74
2024/03/14 13:41:08;;;;;;;6.37;5.80;;;;;;;12.21;100.00;151748.91;10440961;28;20570;-74
2024/03/14 13:46:11;;;;;;;5.97;5.47;;;;;;;12.45;100.00;151808.41;10458877;28;20045;-74
2024/03/14 13:51:13;;;;;;;5.97;5.47;;;;;;;12.39;100.00;151794.16;10459253;28;20115;-74
2024/03/14 13:56:16;;;;;;;6.18;5.63;;;;;;;12.92;100.00;151928.66;10458961;28;20045;-74
2024/03/14 14:01:21;;;;;;;5.95;5.45;;;;;;;12.73;100.00;151880.81;10457916;28;20465;-74
2024/03/14 14:06:24;;;;;;;7.20;5.32;;;;;;;12.96;100.00;151939.00;10459508;28;20501;-76
2024/03/14 14:11:27;;;;;;;6.22;5.63;;;;;;;12.96;100.00;151937.72;10459306;28;20092;-74
2024/03/14 14:16:29;;;;;;;5.78;5.25;;;;;;;12.91;100.00;151924.78;10448640;28;20412;-75
2024/03/14 14:21:31;;;;;;;6.10;5.50;;;;;;;12.85;100.00;151911.84;10466807;28;20037;-75
2024/03/14 14:26:33;;;;;;;5.55;5.05;;;;;;;12.69;100.00;151869.16;10467907;28;20451;-74
2024/03/14 14:31:35;;;;;;;5.20;4.72;;;;;;;12.77;100.00;151891.16;10465927;28;20033;-74
2024/03/14 14:36:37;;;;;;;5.90;5.38;;;;;;;12.72;100.00;151878.22;10465259;28;20045;-74
2024/03/14 14:41:39;;;;;;;6.53;5.90;;;;;;;12.52;100.00;151826.47;10464156;28;20044;-74
2024/03/14 14:46:41;;;;;;;6.30;5.70;;;;;;;12.62;100.00;151852.38;10465446;28;20040;-74
2024/03/14 14:51:43;;;;;;;6.38;5.68;;;;;;;12.37;100.00;151789.00;10464896;28;20049;-75
2024/03/14 14:56:45;;;;;;;5.32;4.93;;;;;;;12.63;100.00;151856.25;10464192;28;20084;-74
2024/03/14 15:01:47;;;;;;;6.20;5.60;;;;;;;12.53;100.00;151830.41;10463015;28;20045;-75
2024/03/14 15:06:49;;;;;;;6.75;4.82;;;;;;;12.43;100.00;151803.22;10445701;28;20504;-75
2024/03/14 15:11:51;;;;;;;5.60;5.05;;;;;;;12.38;100.00;151792.88;10464553;28;20048;-74
2024/03/14 15:16:55;;;;;;;5.53;5.03;;;;;;;12.65;100.00;151860.09;10490938;28;20090;-74
2024/03/14 15:21:57;;;;;;;4.32;3.92;;;;;;;12.69;100.00;151869.16;10505663;28;20141;-74
2024/03/14 15:27:00;;;;;;;4.13;3.80;;;;;;;12.53;100.00;151829.09;10505163;28;20086;-74
2024/03/14 15:32:04;;;;;;;6.07;4.75;;;;;;;12.46;100.00;151812.28;10504181;28;20090;-75
2024/03/14 15:37:06;;;;;;;4.60;4.13;;;;;;;12.27;100.00;151764.44;10504237;28;20044;-74
2024/03/14 15:42:08;;;;;;;4.55;4.15;;;;;;;12.27;100.00;151763.16;10503045;28;20040;-76
2024/03/14 15:47:13;;;;;;;4.10;3.78;;;;;;;12.54;100.00;151832.97;10504108;28;20040;-74
2024/03/14 15:52:16;;;;;;;4.07;3.65;;;;;;;12.35;100.00;151783.81;10502416;28;20496;-75
2024/03/14 15:57:18;;;;;;;4.57;4.18;;;;;;;12.20;100.00;151745.03;10503581;28;20136;-76
2024/03/14 16:02:23;;;;;;;5.15;4.65;;;;;;;12.45;100.00;151809.69;10503971;28;20492;-74
2024/03/14 16:07:26;;;;;;;9.48;5.50;;;;;;;12.11;100.00;151723.06;10503585;28;20119;-76
2024/03/14 16:12:28;;;;;;;11.15;6.10;;;;;;;12.15;100.00;151732.13;10503865;28;20071;-74
2024/03/14 16:17:29;;;;;;;7.90;6.03;;;;;;;12.22;100.00;151751.53;10502930;28;20075;-74
2024/03/14 16:22:32;;;;;;;7.22;6.57;;;;;;;12.14;100.00;151729.56;10484445;28;20032;-74
2024/03/14 16:27:34;;;;;;;6.65;6.05;;;;;;;12.09;100.00;151719.22;10502169;28;20040;-75
2024/03/14 16:32:36;;;;;;;7.60;6.75;;;;;;;12.06;100.00;151710.16;10501977;28;20484;-73
2024/03/14 16:37:38;;;;;;;8.55;7.60;;;;;;;12.04;100.00;151704.94;10502783;28;20094;-74
2024/03/14 16:42:40;;;;;;;7.68;6.90;;;;;;;12.04;100.00;151706.28;10502456;28;20044;-74
2024/03/14 16:47:44;;;;;;;8.05;7.25;;;;;;;11.83;100.00;151652.00;10502653;28;20488;-74
2024/03/14 16:52:47;;;;;;;7.15;6.45;;;;;;;11.88;100.00;151664.91;10502270;28;20120;-74
2024/03/14 16:57:49;;;;;;;6.97;6.32;;;;;;;11.91;100.00;151671.34;10502454;28;20036;-74
2024/03/14 17:02:51;;;;;;;7.65;6.95;;;;;;;11.95;100.00;151681.69;10501461;28;20519;-74
2024/03/14 17:07:52;;;;;;;8.80;7.90;;;;;;;11.73;100.00;151627.41;10483471;28;20458;-74
2024/03/14 17:12:54;;;;;;;9.25;8.45;;;;;;;12.09;100.00;151717.91;10501820;28;20463;-73
2024/03/14 17:17:57;;;;;;;8.98;8.15;;;;;;;11.89;100.00;151666.19;10502160;28;20094;-74
2024/03/14 17:22:58;;;;;;;9.60;8.70;;;;;;;11.74;100.00;151628.69;10501453;28;20037;-74
2024/03/14 17:28:00;;;;;;;12.02;9.07;;;;;;;11.66;100.00;151608.00;10501037;28;20054;-73
2024/03/14 17:33:02;;;;;;;10.10;8.90;;;;;;;11.52;100.00;151574.41;10500490;28;20111;-73
2024/03/14 17:38:04;;;;;;;10.60;9.60;;;;;;;11.78;100.00;151640.31;10501072;28;20040;-74
2024/03/14 17:43:10;;;;;;;10.35;9.30;;;;;;;11.74;100.00;151629.97;10500918;28;20048;-74
2024/03/14 17:48:12;;;;;;;;;;;;;;;11.83;100.00;151652.00;10501716;28;20496;-73
2024/03/14 17:53:14;;;;;;;10.27;9.18;;;;;;;11.89;100.00;151666.19;10500155;28;19920;-75
2024/03/14 17:58:16;;;;;;;11.52;9.73;;;;;;;11.48;100.00;151564.06;10498520;28;20511;-73
2024/03/14 18:03:18;;;;;;;10.73;8.40;;;;;;;11.62;100.00;151600.22;10480601;28;20044;-74
2024/03/14 18:08:20;;;;;;;11.20;10.20;;;;;;;11.47;100.00;151560.22;10500097;28;20064;-73
2024/03/14 18:13:21;;;;;;;10.93;10.02;;;;;;;11.33;100.00;151525.28;10499579;28;20037;-73
2024/03/14 18:18:23;;;;;;;11.35;10.15;;;;;;;11.23;100.00;151500.75;10480083;28;20044;-73
2024/03/14 18:23:25;;;;;;;10.70;9.70;;;;;;;11.29;100.00;151515.00;10498086;28;20051;-73
2024/03/14 18:28:27;;;;;;;10.95;9.95;;;;;;;11.19;100.00;151490.41;10497749;28;20048;-73
2024/03/14 18:33:29;;;;;;;11.70;10.63;;;;;;;11.26;100.00;151507.22;10498170;28;20108;-73
2024/03/14 18:38:32;;;;;;;10.50;9.55;;;;;;;11.02;100.00;151446.47;10497075;28;20456;-73
2024/03/14 18:43:34;;;;;;;18.00;16.30;;;;;;;11.15;100.00;151478.78;10495192;28;20045;-73
2024/03/14 18:48:36;;;;;;;14.63;12.90;;;;;;;11.32;100.00;151524.00;10477760;28;20044;-73
2024/03/14 18:53:38;;;;;;;12.07;10.98;;;;;;;11.31;100.00;151520.13;10496966;28;20058;-73
2024/03/14 18:58:40;;;;;;;11.50;10.35;;;;;;;11.13;100.00;151473.63;10498752;28;20431;-74
2024/03/14 19:03:46;;;;;;;11.40;10.35;;;;;;;10.93;100.00;151424.53;10504379;28;20037;-75
2024/03/14 19:08:49;;;;;;;11.73;10.63;;;;;;;10.84;100.00;151401.28;10504899;28;20119;-75
2024/03/14 19:13:51;;;;;;;11.00;9.98;;;;;;;10.65;100.00;151352.22;10503748;28;20044;-74
2024/03/14 19:18:54;;;;;;;12.65;11.50;;;;;;;10.58;100.00;151335.41;10503752;28;20074;-74
2024/03/14 19:23:59;;;;;;;12.82;11.63;;;;;;;10.42;100.00;151294.13;10503613;28;20090;-73
2024/03/14 19:29:01;;;;;;;15.63;14.23;;;;;;;10.37;100.00;151282.53;10485798;28;20037;-76
2024/03/14 19:34:03;;;;;;;19.48;17.63;;;;;;;10.22;100.00;151245.00;10503314;28;20041;-74
2024/03/14 19:39:08;;;;;;;18.75;17.05;;;;;;;10.19;100.00;151237.28;10503484;28;20047;-74
2024/03/14 19:44:10;;;;;;;18.15;15.88;;;;;;;9.91;100.00;151166.28;10418769;28;1943147;-74
2024/03/14 19:49:12;;;;;;;17.80;15.90;;;;;;;9.79;100.00;151136.63;10486100;28;20041;-75
2024/03/14 19:54:16;;;;;;;14.40;13.00;;;;;;;9.69;100.00;151110.78;10504268;28;20090;-74
2024/03/14 19:59:18;;;;;;;14.57;13.18;;;;;;;9.68;100.00;151108.22;10503642;28;20048;-74
2024/03/14 20:04:20;;;;;;;13.57;11.93;;;;;;;9.37;100.00;151028.22;10503670;28;20063;-76
2024/03/14 20:09:22;;;;;;;14.02;12.73;;;;;;;9.19;100.00;150983.09;10504175;28;20102;-74
2024/03/14 20:14:24;;;;;;;14.90;13.45;;;;;;;9.14;100.00;150970.19;10503399;28;20036;-74
2024/03/14 20:19:26;;;;;;;14.35;12.95;;;;;;;9.00;100.00;150936.66;10503160;28;20044;-74
2024/03/14 20:24:28;;;;;;;23.52;14.77;;;;;;;8.75;100.00;150873.47;10501850;28;20036;-74
2024/03/14 20:29:32;;;;;;;14.20;12.70;;;;;;;8.70;100.00;150860.59;10502594;28;20052;-74
2024/03/14 20:34:34;;;;;;;14.75;13.38;;;;;;;8.71;100.00;150861.88;10501221;28;20056;-73
2024/03/14 20:39:38;;;;;;;21.48;16.52;;;;;;;8.72;100.00;150864.44;10501244;28;20055;-72
2024/03/14 20:44:44;;;;;;;17.52;14.50;;;;;;;8.67;100.00;150852.84;10501762;28;20060;-73
2024/03/14 20:49:46;;;;;;;19.17;15.32;;;;;;;8.59;100.00;150832.25;10500596;28;20564;-73
2024/03/14 20:55:05;;;;;;;21.70;16.10;;;;;;;8.45;100.00;150796.09;10500907;28;20033;-73
2024/03/14 21:00:12;;;;;;;25.00;18.83;;;;;;;8.39;100.00;150780.66;10483838;28;20427;-73
2024/03/14 21:05:14;;;;;;;25.50;17.02;;;;;;;8.35;100.00;150772.88;10483107;28;20043;-73
2024/03/14 21:10:24;;;;;;;26.77;19.45;;;;;;;8.40;100.00;150784.50;10500433;28;20072;-73
2024/03/14 21:15:26;;;;;;;33.95;20.73;;;;;;;8.50;100.00;150809.00;10500020;28;20040;-73
2024/03/14 21:20:28;;;;;;;48.00;21.90;;;;;;;8.45;100.00;150796.09;10499968;28;20128;-73
2024/03/14 21:25:31;;;;;;;61.40;28.05;;;;;;;8.46;100.00;150800.00;10499627;28;20037;-74
2024/03/14 21:30:33;;;;;;;53.88;24.85;;;;;;;8.55;100.00;150821.94;10499430;28;20043;-73
2024/03/14 21:35:39;;;;;;;42.13;23.92;;;;;;;8.49;100.00;150807.72;10498780;28;20036;-74
2024/03/14 21:40:42;;;;;;;33.08;19.23;;;;;;;8.42;100.00;150789.69;10499172;28;20079;-74
2024/03/14 21:45:47;;;;;;;26.15;18.95;;;;;;;8.33;100.00;150766.44;10498950;28;20124;-74
2024/03/14 21:50:49;;;;;;;25.23;19.10;;;;;;;8.28;100.00;150753.56;10481183;28;20072;-74
2024/03/14 21:55:51;;;;;;;29.42;18.45;;;;;;;8.27;100.00;150752.22;10497894;28;20534;-74
2024/03/14 22:00:53;;;;;;;22.95;18.42;;;;;;;8.18;100.00;150727.75;10497961;28;20119;-73
2024/03/14 22:05:55;;;;;;;25.83;19.08;;;;;;;8.25;100.00;150745.81;10498025;28;20041;-74
2024/03/14 22:10:57;;;;;;;22.42;18.92;;;;;;;8.19;100.00;150730.31;10498189;28;20041;-73
2024/03/14 22:15:58;;;;;;;41.05;22.05;;;;;;;8.17;100.00;150726.47;10497509;28;20041;-73
2024/03/14 22:21:00;;;;;;;29.20;20.52;;;;;;;8.14;100.00;150718.72;10497118;28;20075;-74
2024/03/14 22:26:02;;;;;;;32.03;20.38;;;;;;;8.14;100.00;150718.72;10496815;28;20033;-73
2024/03/14 22:31:07;;;;;;;24.02;19.23;;;;;;;8.29;100.00;150757.41;10496945;28;20102;-72
2024/03/14 22:36:14;;;;;;;35.97;22.10;;;;;;;8.20;100.00;150734.22;10502123;28;20041;-73
2024/03/14 22:41:16;;;;;;;40.80;23.23;;;;;;;8.01;100.00;150686.53;10504770;28;20420;-74
2024/03/14 22:46:18;;;;;;;42.08;24.25;;;;;;;7.90;100.00;150658.19;10506494;28;20044;-73
2024/03/14 22:51:19;;;;;;;24.85;19.20;;;;;;;7.89;100.00;150654.31;10486653;28;20554;-73
2024/03/14 22:56:21;;;;;;;26.70;19.10;;;;;;;7.80;100.00;150632.44;10505263;28;20082;-73
2024/03/14 23:01:23;;;;;;;43.40;23.42;;;;;;;7.71;100.00;150610.53;10505341;28;20404;-74